Time;durP1;ratioP1;P1;durP2;ratioP2;P2;SDS_P1;SDS_P2;PMS_P1;PMS_P2;Temp;Humidity;BMP_temperature;BMP_pressure;BME280_temperature;BME280_humidity;BME280_pressure;Samples;Min_cycle;Max_cycle;Signal;HPM_P1;HPM_P2
2022/08/02 00:00:01;;;;;;;7.70;5.10;;;16.30;99.90;;;;;;5092785;28;20647;-42
2022/08/02 00:02:27;;;;;;;7.23;5.60;;;16.30;99.90;;;;;;5091936;28;20601;-43
2022/08/02 00:04:52;;;;;;;5.17;4.77;;;16.20;99.90;;;;;;5092253;28;20530;-44
2022/08/02 00:07:18;;;;;;;5.57;4.67;;;16.10;99.90;;;;;;5090727;28;20207;-42
2022/08/02 00:09:44;;;;;;;5.73;4.47;;;16.10;99.90;;;;;;5092388;28;20188;-46
2022/08/02 00:12:10;;;;;;;6.80;5.07;;;16.10;99.90;;;;;;5092424;28;20245;-42
2022/08/02 00:14:36;;;;;;;5.03;4.53;;;16.10;99.90;;;;;;5092347;28;20176;-42
2022/08/02 00:17:03;;;;;;;5.37;4.87;;;16.10;99.90;;;;;;5091747;28;20422;-42
2022/08/02 00:19:29;;;;;;;7.50;5.10;;;16.10;99.90;;;;;;5090942;28;20410;-42
2022/08/02 00:21:54;;;;;;;5.27;4.63;;;16.00;99.90;;;;;;5091884;28;20444;-42
2022/08/02 00:24:20;;;;;;;5.40;4.93;;;16.00;99.90;;;;;;5092355;28;20236;-42
2022/08/02 00:26:46;;;;;;;9.70;5.53;;;15.90;99.90;;;;;;5091376;28;20204;-42
2022/08/02 00:29:12;;;;;;;5.20;4.70;;;15.90;99.90;;;;;;5092098;28;20682;-42
2022/08/02 00:31:37;;;;;;;7.60;5.00;;;15.90;99.90;;;;;;5092028;28;20188;-42
2022/08/02 00:34:03;;;;;;;7.93;5.60;;;15.80;99.90;;;;;;5092052;28;20180;-42
2022/08/02 00:36:29;;;;;;;8.40;5.83;;;15.80;99.90;;;;;;5091707;28;20195;-42
2022/08/02 00:38:55;;;;;;;7.37;5.60;;;15.90;99.90;;;;;;5091416;28;20184;-42
2022/08/02 00:41:22;;;;;;;5.30;4.80;;;15.90;99.90;;;;;;5091826;28;20207;-45
2022/08/02 00:43:48;;;;;;;5.07;4.50;;;15.90;99.90;;;;;;5091972;28;20210;-43
2022/08/02 00:46:16;;;;;;;5.20;4.70;;;15.80;99.90;;;;;;5091793;28;20475;-42
2022/08/02 00:48:42;;;;;;;6.00;5.27;;;15.90;99.90;;;;;;5091032;28;20476;-43
2022/08/02 00:51:07;;;;;;;5.83;5.00;;;15.90;99.90;;;;;;5091479;28;20427;-45
2022/08/02 00:53:33;;;;;;;4.70;4.20;;;15.90;99.90;;;;;;5091748;28;20245;-42
2022/08/02 00:56:00;;;;;;;5.93;5.10;;;15.80;99.90;;;;;;5091704;28;20192;-41
2022/08/02 00:58:26;;;;;;;6.37;5.87;;;15.80;99.90;;;;;;5089581;28;20212;-44
2022/08/02 01:00:51;;;;;;;6.67;5.20;;;15.80;99.90;;;;;;5091686;28;20773;-42
2022/08/02 01:03:17;;;;;;;6.53;5.30;;;15.70;99.90;;;;;;5091379;28;20423;-42
2022/08/02 01:05:43;;;;;;;5.70;4.60;;;15.70;99.90;;;;;;5091043;28;20600;-42
2022/08/02 01:08:09;;;;;;;6.40;5.10;;;15.70;99.90;;;;;;5090683;28;20554;-42
2022/08/02 01:10:35;;;;;;;6.63;5.93;;;15.70;99.90;;;;;;5077623;28;20192;-43
2022/08/02 01:13:01;;;;;;;6.83;5.30;;;15.80;99.90;;;;;;5091235;28;20444;-42
2022/08/02 01:15:27;;;;;;;7.43;4.87;;;15.70;99.90;;;;;;5091197;28;20188;-42
2022/08/02 01:18:08;;;;;;;5.43;5.03;;;15.80;99.90;;;;;;5090618;28;20192;-45
2022/08/02 01:21:02;;;;;;;6.87;5.00;;;15.80;99.90;;;;;;5089345;28;20469;-45
2022/08/02 01:23:42;;;;;;;6.67;6.00;;;15.70;99.90;;;;;;5051980;28;20886;-44
2022/08/02 01:26:25;;;;;;;5.93;5.33;;;15.70;99.90;;;;;;5091061;28;20457;-42
2022/08/02 01:28:59;;;;;;;5.60;5.10;;;15.70;99.90;;;;;;5090389;28;20465;-43
2022/08/02 01:31:28;;;;;;;6.40;5.80;;;15.70;99.90;;;;;;5092799;28;20546;-44
2022/08/02 01:34:07;;;;;;;7.17;6.03;;;15.80;99.90;;;;;;5099259;28;20422;-44
2022/08/02 01:36:38;;;;;;;7.60;5.73;;;15.80;99.90;;;;;;5090321;28;20475;-43
2022/08/02 01:39:10;;;;;;;6.67;5.80;;;15.80;99.90;;;;;;5094061;28;20424;-45
2022/08/02 01:41:37;;;;;;;7.07;6.23;;;15.70;99.90;;;;;;5101746;28;20418;-43
2022/08/02 01:44:04;;;;;;;6.67;6.07;;;15.70;99.90;;;;;;5090847;28;20430;-42
2022/08/02 01:46:31;;;;;;;6.10;5.23;;;15.70;99.90;;;;;;5090554;28;20437;-45
2022/08/02 01:49:01;;;;;;;5.83;5.33;;;15.70;99.90;;;;;;5090466;28;20457;-43
2022/08/02 01:54:16;;;;;;;5.63;5.10;;;15.60;99.90;;;;;;5096990;28;20433;-43
2022/08/02 01:56:43;;;;;;;5.50;4.70;;;15.60;99.90;;;;;;5089903;28;20501;-41
2022/08/02 01:59:12;;;;;;;5.67;5.10;;;15.70;99.90;;;;;;5090383;28;20907;-42
2022/08/02 02:01:40;;;;;;;6.80;5.20;;;15.70;99.90;;;;;;5090303;28;20931;-43
2022/08/02 02:04:10;;;;;;;5.63;5.13;;;15.60;99.90;;;;;;5090274;28;20516;-42
2022/08/02 02:06:37;;;;;;;5.20;4.63;;;15.60;99.90;;;;;;5089653;28;20468;-45
2022/08/02 02:09:04;;;;;;;5.23;4.70;;;15.60;99.90;;;;;;5093471;28;20465;-42
2022/08/02 02:11:31;;;;;;;5.67;5.00;;;15.60;99.90;;;;;;5102192;28;20422;-43
2022/08/02 02:14:01;;;;;;;6.67;5.33;;;15.60;99.90;;;;;;5091372;28;20418;-42
2022/08/02 02:16:27;;;;;;;9.30;5.17;;;15.50;99.90;;;;;;5090401;28;20799;-42
2022/08/02 02:18:53;;;;;;;5.87;5.30;;;15.50;99.90;;;;;;5088040;28;20418;-44
2022/08/02 02:21:19;;;;;;;8.23;4.90;;;15.50;99.90;;;;;;5090239;28;20934;-45
2022/08/02 02:23:45;;;;;;;5.47;4.97;;;15.50;99.90;;;;;;5089959;28;20438;-42
2022/08/02 02:26:15;;;;;;;6.27;5.67;;;15.50;99.90;;;;;;5090053;28;20426;-43
2022/08/02 02:28:43;;;;;;;6.53;5.40;;;15.50;99.90;;;;;;5089144;28;20211;-42
2022/08/02 02:31:13;;;;;;;5.20;4.57;;;15.40;99.90;;;;;;5089350;28;20469;-43
2022/08/02 02:34:00;;;;;;;7.00;5.83;;;15.40;99.90;;;;;;5089941;28;20513;-43
2022/08/02 02:36:28;;;;;;;5.87;5.37;;;15.40;99.90;;;;;;5088634;28;20424;-43
2022/08/02 02:38:58;;;;;;;5.10;4.70;;;15.40;99.90;;;;;;5089300;28;20450;-42
2022/08/02 02:41:25;;;;;;;5.97;5.17;;;15.40;99.90;;;;;;5089659;28;20517;-43
2022/08/02 02:43:57;;;;;;;6.00;5.40;;;15.30;99.90;;;;;;5089776;28;20430;-43
2022/08/02 02:46:24;;;;;;;6.40;5.80;;;15.30;99.90;;;;;;5089863;28;20434;-43
2022/08/02 02:48:50;;;;;;;6.80;6.20;;;15.30;99.90;;;;;;5089322;28;21100;-42
2022/08/02 02:51:17;;;;;;;6.43;5.70;;;15.30;99.90;;;;;;5089796;28;20414;-43
2022/08/02 02:53:47;;;;;;;6.77;6.20;;;15.30;99.90;;;;;;5089839;28;20427;-42
2022/08/02 02:56:15;;;;;;;6.30;5.70;;;15.30;99.90;;;;;;5089704;28;20418;-42
2022/08/02 02:58:42;;;;;;;6.90;6.00;;;15.30;99.90;;;;;;5089190;28;20462;-45
2022/08/02 03:01:26;;;;;;;8.13;5.70;;;15.30;99.90;;;;;;5089626;28;20972;-43
2022/08/02 03:03:56;;;;;;;5.20;4.70;;;15.20;99.90;;;;;;5089710;28;20434;-43
2022/08/02 03:06:22;;;;;;;11.43;6.63;;;15.20;99.90;;;;;;5089186;28;20778;-44
2022/08/02 03:08:48;;;;;;;5.97;5.13;;;15.30;99.90;;;;;;5084761;28;20516;-45
2022/08/02 03:11:14;;;;;;;6.10;5.50;;;15.20;99.90;;;;;;5079142;28;20460;-42
2022/08/02 03:13:40;;;;;;;5.90;4.90;;;15.10;99.90;;;;;;5088321;28;20431;-43
2022/08/02 03:16:06;;;;;;;5.53;5.13;;;15.10;99.90;;;;;;5089529;28;20630;-42
2022/08/02 03:18:33;;;;;;;5.17;4.77;;;15.00;99.90;;;;;;5088839;28;20430;-43
2022/08/02 03:21:11;;;;;;;6.40;4.90;;;15.00;99.90;;;;;;5088489;28;20425;-43
2022/08/02 03:23:39;;;;;;;5.50;5.00;;;15.00;99.90;;;;;;5089449;28;20426;-44
2022/08/02 03:26:05;;;;;;;5.43;5.03;;;14.90;99.90;;;;;;5089493;28;20928;-44
2022/08/02 03:28:31;;;;;;;6.17;5.43;;;14.80;99.90;;;;;;5088650;28;20470;-43
2022/08/02 03:30:57;;;;;;;6.87;5.03;;;14.80;99.90;;;;;;5089519;28;20419;-42
2022/08/02 03:33:24;;;;;;;7.00;6.20;;;14.80;99.90;;;;;;5089154;28;20483;-44
2022/08/02 03:35:53;;;;;;;12.60;6.93;;;14.80;99.90;;;;;;5089546;28;20426;-44
2022/08/02 03:38:21;;;;;;;6.37;5.77;;;14.90;99.90;;;;;;5088879;28;20422;-43
2022/08/02 03:40:48;;;;;;;7.67;6.43;;;14.90;99.90;;;;;;5089741;28;20945;-44
2022/08/02 03:43:15;;;;;;;9.37;7.13;;;14.90;99.90;;;;;;5103589;28;20780;-44
2022/08/02 03:45:47;;;;;;;10.40;6.47;;;15.10;99.90;;;;;;5100408;28;20982;-43
2022/08/02 03:48:14;;;;;;;7.10;6.40;;;15.10;99.90;;;;;;5091965;28;20468;-43
2022/08/02 03:50:41;;;;;;;9.23;6.70;;;15.10;99.90;;;;;;5092580;28;20433;-43
2022/08/02 03:53:07;;;;;;;6.23;5.63;;;15.10;99.90;;;;;;5092960;28;20505;-42
2022/08/02 03:55:34;;;;;;;9.10;6.17;;;15.00;99.90;;;;;;5092890;28;20429;-43
2022/08/02 03:58:00;;;;;;;7.97;6.83;;;15.10;99.90;;;;;;5092078;28;20450;-43
2022/08/02 04:00:26;;;;;;;9.67;7.80;;;15.10;99.90;;;;;;5090929;28;20502;-42
2022/08/02 04:02:52;;;;;;;7.80;7.07;;;15.10;99.90;;;;;;5102263;28;20211;-43
2022/08/02 04:05:18;;;;;;;9.40;7.40;;;15.20;99.90;;;;;;5098850;28;20437;-45
2022/08/02 04:07:45;;;;;;;10.73;7.33;;;15.20;99.90;;;;;;5091845;28;20534;-42
2022/08/02 04:10:11;;;;;;;11.50;9.20;;;15.20;99.90;;;;;;5090116;28;20776;-42
2022/08/02 04:12:37;;;;;;;10.23;7.63;;;15.20;99.90;;;;;;5100866;28;20419;-42
2022/08/02 04:15:05;;;;;;;8.20;7.37;;;15.20;99.90;;;;;;5092138;28;20188;-43
2022/08/02 04:17:34;;;;;;;7.43;6.73;;;15.20;99.90;;;;;;5091694;28;20515;-43
2022/08/02 04:20:26;;;;;;;6.90;6.30;;;15.20;99.90;;;;;;5091132;28;20426;-43
2022/08/02 04:23:03;;;;;;;9.33;7.47;;;15.30;99.90;;;;;;5093653;28;21069;-42
2022/08/02 04:25:31;;;;;;;9.23;8.27;;;15.20;99.90;;;;;;5098747;28;20821;-45
2022/08/02 04:27:58;;;;;;;8.43;7.43;;;15.20;99.90;;;;;;5097093;28;20470;-43
2022/08/02 04:30:24;;;;;;;9.93;8.33;;;15.10;99.90;;;;;;5092137;28;20418;-45
2022/08/02 04:32:51;;;;;;;9.93;8.40;;;15.10;99.90;;;;;;5092013;28;20920;-44
2022/08/02 04:35:17;;;;;;;10.57;7.80;;;15.10;99.90;;;;;;5092163;28;21009;-43
2022/08/02 04:37:44;;;;;;;9.27;8.17;;;15.20;99.90;;;;;;5091320;28;20488;-42
2022/08/02 04:40:11;;;;;;;9.20;8.30;;;15.30;99.90;;;;;;5091315;28;20455;-43
2022/08/02 04:42:37;;;;;;;9.63;7.37;;;15.30;99.90;;;;;;5086026;28;20770;-43
2022/08/02 04:45:06;;;;;;;9.03;7.53;;;15.40;99.90;;;;;;5095461;28;20421;-44
2022/08/02 04:47:32;;;;;;;9.50;8.30;;;15.50;99.90;;;;;;5096197;28;20577;-43
2022/08/02 04:49:58;;;;;;;8.73;7.87;;;15.50;99.90;;;;;;5100018;28;20972;-44
2022/08/02 04:52:23;;;;;;;10.00;8.50;;;15.60;99.90;;;;;;5091656;28;20419;-46
2022/08/02 04:54:50;;;;;;;8.73;7.73;;;15.70;99.90;;;;;;5090877;28;20560;-43
2022/08/02 05:00:02;;;;;;;8.27;7.17;;;15.80;99.90;;;;;;5091477;28;20468;-45
2022/08/02 05:02:28;;;;;;;10.27;8.10;;;16.00;99.90;;;;;;5091347;28;20427;-44
2022/08/02 05:04:53;;;;;;;9.23;7.80;;;16.00;99.90;;;;;;5091304;28;20438;-43
2022/08/02 05:07:19;;;;;;;8.13;7.43;;;16.10;99.90;;;;;;5090438;28;20184;-43
2022/08/02 05:09:45;;;;;;;8.30;7.50;;;16.20;99.90;;;;;;5091300;28;20188;-43
2022/08/02 05:12:11;;;;;;;8.70;7.90;;;16.20;99.90;;;;;;5091184;28;20904;-42
2022/08/02 05:14:36;;;;;;;8.70;7.90;;;16.20;99.90;;;;;;5090859;28;20184;-43
2022/08/02 05:17:02;;;;;;;8.60;7.50;;;16.10;99.90;;;;;;5090656;28;20234;-42
2022/08/02 05:19:28;;;;;;;8.80;7.87;;;16.20;99.90;;;;;;5090241;28;20192;-43
2022/08/02 05:21:54;;;;;;;8.93;7.90;;;16.30;99.90;;;;;;5090781;28;20184;-43
2022/08/02 05:24:19;;;;;;;11.33;8.37;;;16.30;99.90;;;;;;5091115;28;20188;-43
2022/08/02 05:26:45;;;;;;;10.90;8.83;;;16.30;99.90;;;;;;5090224;28;20592;-44
2022/08/02 05:29:11;;;;;;;9.43;8.50;;;16.30;99.90;;;;;;5089884;28;20240;-42
2022/08/02 05:31:36;;;;;;;9.97;7.97;;;16.40;99.90;;;;;;5096449;28;20204;-44
2022/08/02 05:34:02;;;;;;;8.37;7.53;;;16.40;99.90;;;;;;5093800;28;20199;-42
2022/08/02 05:36:28;;;;;;;8.00;7.30;;;16.40;99.90;;;;;;5101701;28;20176;-43
2022/08/02 05:38:53;;;;;;;8.20;7.23;;;16.50;99.90;;;;;;5089042;28;20184;-42
2022/08/02 05:41:19;;;;;;;15.63;7.87;;;16.50;99.90;;;;;;5090643;28;20189;-43
2022/08/02 05:43:46;;;;;;;9.40;7.83;;;16.50;99.90;;;;;;5090400;28;20184;-42
2022/08/02 05:46:12;;;;;;;9.73;8.67;;;16.60;99.90;;;;;;5090172;28;20453;-43
2022/08/02 05:48:37;;;;;;;9.73;8.43;;;16.60;99.90;;;;;;5089898;28;20564;-44
2022/08/02 05:51:09;;;;;;;9.40;8.60;;;16.70;99.90;;;;;;5090152;28;20193;-42
2022/08/02 05:53:54;;;;;;;8.63;7.83;;;16.80;99.90;;;;;;5090696;28;20213;-43
2022/08/02 05:56:37;;;;;;;9.23;7.70;;;17.00;99.90;;;;;;5090463;28;20438;-43
2022/08/02 05:59:10;;;;;;;8.43;7.63;;;17.20;99.90;;;;;;5090257;28;20430;-42
2022/08/02 06:01:41;;;;;;;8.43;7.70;;;17.30;99.90;;;;;;5090369;28;20508;-42
2022/08/02 06:04:10;;;;;;;8.70;7.80;;;17.50;99.90;;;;;;5090297;28;20442;-42
2022/08/02 06:06:36;;;;;;;9.13;8.03;;;17.70;99.90;;;;;;5089092;28;21174;-41
2022/08/02 06:09:23;;;;;;;8.80;7.90;;;17.90;99.90;;;;;;5085045;28;20516;-44
2022/08/02 06:11:51;;;;;;;9.83;7.80;;;18.00;99.90;;;;;;5084522;28;20536;-43
2022/08/02 06:14:18;;;;;;;10.83;8.10;;;18.10;99.90;;;;;;5090320;28;21073;-42
2022/08/02 06:16:45;;;;;;;9.73;7.13;;;18.20;99.90;;;;;;5089570;28;20426;-42
2022/08/02 06:19:11;;;;;;;8.80;6.93;;;18.40;99.90;;;;;;5089335;28;20441;-45
2022/08/02 06:21:41;;;;;;;9.30;8.33;;;18.50;99.90;;;;;;5090201;28;20431;-42
2022/08/02 06:24:11;;;;;;;8.07;7.10;;;18.70;99.90;;;;;;5089915;28;20521;-42
2022/08/02 06:26:37;;;;;;;8.10;7.30;;;18.70;99.90;;;;;;5089289;28;20487;-42
2022/08/02 06:29:03;;;;;;;7.43;6.70;;;18.90;99.90;;;;;;5088841;28;20462;-42
2022/08/02 06:31:29;;;;;;;8.47;7.57;;;19.10;99.90;;;;;;5089697;28;20472;-43
2022/08/02 06:33:55;;;;;;;8.00;7.20;;;19.20;99.90;;;;;;5088788;28;20422;-43
2022/08/02 06:36:33;;;;;;;8.57;7.53;;;19.40;99.90;;;;;;5088828;28;20184;-44
2022/08/02 06:39:07;;;;;;;8.23;7.53;;;19.50;99.90;;;;;;5089249;28;20422;-42
2022/08/02 06:41:42;;;;;;;8.77;7.83;;;19.60;99.90;;;;;;5090081;28;20434;-44
2022/08/02 06:44:08;;;;;;;8.60;6.50;;;19.70;99.90;;;;;;5089776;28;20541;-42
2022/08/02 06:46:34;;;;;;;8.23;6.00;;;19.80;99.90;;;;;;5089483;28;20426;-42
2022/08/02 06:49:01;;;;;;;7.30;6.60;;;20.00;99.90;;;;;;5089431;28;20816;-43
2022/08/02 06:51:27;;;;;;;9.83;6.90;;;20.10;99.90;;;;;;5089659;28;20475;-44
2022/08/02 06:53:53;;;;;;;7.47;6.77;;;20.10;99.90;;;;;;5089692;28;20966;-43
2022/08/02 06:56:19;;;;;;;8.27;6.43;;;20.20;99.90;;;;;;5090002;28;20833;-42
2022/08/02 06:58:44;;;;;;;14.70;6.77;;;20.20;99.90;;;;;;5088700;28;20435;-44
2022/08/02 07:01:11;;;;;;;7.73;6.90;;;20.30;99.90;;;;;;5089513;28;20278;-42
2022/08/02 07:03:39;;;;;;;6.87;6.23;;;20.40;99.90;;;;;;5089566;28;20422;-45
2022/08/02 07:06:08;;;;;;;8.50;6.87;;;20.50;99.90;;;;;;5089066;28;20466;-42
2022/08/02 07:08:37;;;;;;;7.30;6.50;;;20.60;99.90;;;;;;5089037;28;20503;-45
2022/08/02 07:11:07;;;;;;;7.30;6.70;;;20.70;99.90;;;;;;5087078;28;20426;-45
2022/08/02 07:13:33;;;;;;;5.50;5.00;;;20.80;99.90;;;;;;5089774;28;20426;-44
2022/08/02 07:16:00;;;;;;;6.73;5.73;;;21.00;99.90;;;;;;5088959;28;20429;-42
2022/08/02 07:18:26;;;;;;;7.37;4.20;;;21.10;99.90;;;;;;5092212;28;20452;-43
2022/08/02 07:20:52;;;;;;;7.27;5.43;;;21.20;99.90;;;;;;5092545;28;20434;-45
2022/08/02 07:23:18;;;;;;;5.93;4.60;;;21.30;99.90;;;;;;5093460;28;20426;-43
2022/08/02 07:25:45;;;;;;;3.80;3.50;;;21.40;99.90;;;;;;5093184;28;20788;-43
2022/08/02 07:28:11;;;;;;;8.27;5.47;;;21.40;99.90;;;;;;5091824;28;20465;-43
2022/08/02 07:30:37;;;;;;;5.00;4.17;;;21.50;99.90;;;;;;5093080;28;20505;-43
2022/08/02 07:33:04;;;;;;;5.40;3.67;;;21.70;99.90;;;;;;5092781;28;21103;-43
2022/08/02 07:35:30;;;;;;;4.20;3.90;;;21.80;99.90;;;;;;5093157;28;20527;-42
2022/08/02 07:37:56;;;;;;;4.33;3.90;;;22.00;99.90;;;;;;5092206;28;20422;-43
2022/08/02 07:40:23;;;;;;;4.37;3.97;;;22.10;99.90;;;;;;5093187;28;20836;-44
2022/08/02 07:42:51;;;;;;;3.90;3.50;;;22.20;99.90;;;;;;5092801;28;20279;-44
2022/08/02 07:45:19;;;;;;;5.50;3.87;;;22.30;99.90;;;;;;5093088;28;20469;-43
2022/08/02 07:47:45;;;;;;;4.87;3.60;;;22.40;99.90;;;;;;5091964;28;20449;-44
2022/08/02 07:50:13;;;;;;;4.80;4.40;;;22.40;99.90;;;;;;5093173;28;20421;-43
2022/08/02 07:52:40;;;;;;;4.43;4.03;;;22.40;99.90;;;;;;5092758;28;20448;-44
2022/08/02 07:55:06;;;;;;;3.80;3.40;;;22.50;99.90;;;;;;5092785;28;20436;-43
2022/08/02 07:57:32;;;;;;;4.10;3.70;;;22.50;99.90;;;;;;5090832;28;20468;-43
2022/08/02 07:59:58;;;;;;;5.63;3.70;;;22.50;99.90;;;;;;5092706;28;20426;-44
2022/08/02 08:02:24;;;;;;;3.50;3.00;;;22.60;99.90;;;;;;5092542;28;20662;-42
2022/08/02 08:04:50;;;;;;;3.50;2.97;;;22.70;99.90;;;;;;5092452;28;20208;-44
2022/08/02 08:07:16;;;;;;;4.00;3.50;;;22.80;99.90;;;;;;5091794;28;20181;-46
2022/08/02 08:09:43;;;;;;;6.10;3.53;;;22.80;99.90;;;;;;5092418;28;20785;-45
2022/08/02 08:12:11;;;;;;;3.40;2.60;;;22.90;99.90;;;;;;5092438;28;20180;-42
2022/08/02 08:14:38;;;;;;;3.67;3.37;;;22.80;99.90;;;;;;5092124;28;20447;-44
2022/08/02 08:17:05;;;;;;;11.10;3.47;;;22.80;99.90;;;;;;5091671;28;20424;-43
2022/08/02 08:19:31;;;;;;;5.97;3.10;;;22.70;99.90;;;;;;5091416;28;20859;-43
2022/08/02 08:22:00;;;;;;;3.20;2.90;;;22.70;99.90;;;;;;5092161;28;20418;-44
2022/08/02 08:24:27;;;;;;;5.57;3.43;;;22.70;99.90;;;;;;5092028;28;20418;-44
2022/08/02 08:26:53;;;;;;;3.53;2.73;;;22.70;99.90;;;;;;5091414;28;20457;-45
2022/08/02 08:29:19;;;;;;;5.43;2.83;;;22.70;99.90;;;;;;5091025;28;20450;-45
2022/08/02 08:31:44;;;;;;;2.87;2.67;;;22.70;99.90;;;;;;5091837;28;20424;-43
2022/08/02 08:34:10;;;;;;;3.70;2.90;;;22.70;99.90;;;;;;5092010;28;20184;-42
2022/08/02 08:36:36;;;;;;;3.30;3.00;;;22.80;99.90;;;;;;5091615;28;20234;-43
2022/08/02 08:39:03;;;;;;;4.00;2.70;;;22.80;99.90;;;;;;5091808;28;20221;-42
2022/08/02 08:41:29;;;;;;;3.43;3.13;;;22.90;99.90;;;;;;5091861;28;20430;-42
2022/08/02 08:43:55;;;;;;;2.80;2.53;;;22.90;99.90;;;;;;5089769;28;20462;-44
2022/08/02 08:46:26;;;;;;;3.03;2.50;;;23.00;99.90;;;;;;5091401;28;21215;-42
2022/08/02 08:48:59;;;;;;;2.37;2.17;;;23.10;99.90;;;;;;5090703;28;20265;-42
2022/08/02 08:51:29;;;;;;;2.90;2.23;;;23.10;99.90;;;;;;5091675;28;20485;-47
2022/08/02 08:53:58;;;;;;;4.63;2.33;;;23.20;99.90;;;;;;5091642;28;20426;-44
2022/08/02 08:56:33;;;;;;;2.60;2.40;;;23.20;99.90;;;;;;5091233;28;20967;-45
2022/08/02 08:58:59;;;;;;;2.70;2.50;;;23.20;99.90;;;;;;5091415;28;21024;-42
2022/08/02 09:01:25;;;;;;;3.07;2.77;;;23.30;99.90;;;;;;5091756;28;20422;-43
2022/08/02 09:03:51;;;;;;;2.73;2.53;;;23.30;99.90;;;;;;5091316;28;20434;-44
2022/08/02 09:06:16;;;;;;;4.17;3.20;;;23.40;99.90;;;;;;5091299;28;20200;-43
2022/08/02 09:08:42;;;;;;;2.80;2.60;;;23.50;99.90;;;;;;5090483;28;20667;-43
2022/08/02 09:11:13;;;;;;;3.53;3.23;;;23.60;99.90;;;;;;5091084;28;20267;-42
2022/08/02 09:13:54;;;;;;;6.53;3.37;;;23.60;99.90;;;;;;5091274;28;20219;-45
2022/08/02 09:16:40;;;;;;;6.30;3.90;;;23.60;99.90;;;;;;5091050;28;20418;-42
2022/08/02 09:19:39;;;;;;;5.40;3.50;;;23.60;99.90;;;;;;5090112;28;20415;-42
2022/08/02 09:22:11;;;;;;;4.43;3.00;;;23.80;99.90;;;;;;5063733;28;20438;-42
2022/08/02 09:24:55;;;;;;;3.93;3.63;;;23.80;99.90;;;;;;5091082;28;20441;-45
2022/08/02 09:27:22;;;;;;;4.30;2.90;;;23.90;99.90;;;;;;5087971;28;20430;-43
2022/08/02 09:29:50;;;;;;;3.57;3.07;;;24.00;99.90;;;;;;5090651;28;20418;-43
2022/08/02 09:32:17;;;;;;;4.03;3.57;;;24.10;99.90;;;;;;5090857;28;20414;-42
2022/08/02 09:34:48;;;;;;;4.03;3.57;;;24.20;99.90;;;;;;5090854;28;20450;-42
2022/08/02 09:37:25;;;;;;;3.60;3.30;;;24.40;99.90;;;;;;5090129;28;20480;-45
2022/08/02 09:39:51;;;;;;;3.80;3.50;;;24.40;99.90;;;;;;5090585;28;20421;-43
2022/08/02 09:42:17;;;;;;;3.10;2.90;;;24.50;99.90;;;;;;5090316;28;20407;-44
2022/08/02 09:44:57;;;;;;;6.50;3.70;;;24.70;99.90;;;;;;5090598;28;20435;-46
2022/08/02 09:47:24;;;;;;;3.93;3.63;;;24.80;99.90;;;;;;5089896;28;20429;-43
2022/08/02 09:49:50;;;;;;;3.13;2.90;;;24.90;99.90;;;;;;5090819;28;20421;-43
2022/08/02 09:52:21;;;;;;;5.10;3.47;;;25.00;99.90;;;;;;5089333;28;20792;-43
2022/08/02 09:54:47;;;;;;;3.57;3.27;;;25.00;99.90;;;;;;5089104;28;20187;-44
2022/08/02 09:57:26;;;;;;;4.60;4.20;;;25.20;99.90;;;;;;5089887;28;20407;-45
2022/08/02 09:59:54;;;;;;;5.10;3.73;;;25.20;99.90;;;;;;5090407;28;20184;-45
2022/08/02 10:02:19;;;;;;;7.20;3.93;;;25.30;99.90;;;;;;5090413;28;20939;-44
2022/08/02 10:04:45;;;;;;;7.53;4.07;;;25.30;99.90;;;;;;5090167;28;20442;-43
2022/08/02 10:07:11;;;;;;;4.17;3.87;;;25.50;99.90;;;;;;5089505;28;20202;-44
2022/08/02 10:09:37;;;;;;;3.43;3.13;;;25.40;99.90;;;;;;5080449;28;20236;-45
2022/08/02 10:12:05;;;;;;;5.40;4.30;;;25.40;99.90;;;;;;5085496;28;20442;-42
2022/08/02 10:14:32;;;;;;;4.70;3.93;;;25.30;99.90;;;;;;5090130;28;20414;-44
2022/08/02 10:16:59;;;;;;;4.07;3.77;;;25.30;99.90;;;;;;5089430;28;20418;-44
2022/08/02 10:19:26;;;;;;;4.17;3.83;;;25.30;99.90;;;;;;5089316;28;20426;-44
2022/08/02 10:22:05;;;;;;;4.17;3.60;;;25.40;99.90;;;;;;5089889;28;20450;-42
2022/08/02 10:24:35;;;;;;;6.60;4.40;;;25.40;99.90;;;;;;5090110;28;20422;-43
2022/08/02 10:27:02;;;;;;;5.30;3.73;;;25.50;99.90;;;;;;5089300;28;20514;-42
2022/08/02 10:29:38;;;;;;;3.80;3.60;;;25.40;99.90;;;;;;5089996;28;20470;-45
2022/08/02 10:32:25;;;;;;;4.13;3.53;;;25.50;99.90;;;;;;5089944;28;20409;-45
2022/08/02 10:35:02;;;;;;;4.07;3.77;;;25.40;99.90;;;;;;5089859;28;20465;-42
2022/08/02 10:37:35;;;;;;;4.53;3.77;;;25.30;99.90;;;;;;5087961;28;20476;-42
2022/08/02 10:40:01;;;;;;;4.23;3.83;;;25.40;99.90;;;;;;5089954;28;20410;-44
2022/08/02 10:42:47;;;;;;;3.93;3.63;;;25.50;99.90;;;;;;5089818;28;20560;-43
2022/08/02 10:45:18;;;;;;;3.97;3.67;;;25.50;99.90;;;;;;5090127;28;20419;-44
2022/08/02 10:48:02;;;;;;;3.70;3.50;;;25.60;99.90;;;;;;5089139;28;20502;-42
2022/08/02 10:50:46;;;;;;;4.47;4.07;;;25.80;99.90;;;;;;5089912;28;20421;-44
2022/08/02 10:53:32;;;;;;;5.20;4.80;;;25.90;99.90;;;;;;5092886;28;20449;-46
2022/08/02 10:56:03;;;;;;;5.30;4.00;;;26.00;99.90;;;;;;5093770;28;20873;-43
2022/08/02 10:58:31;;;;;;;5.77;4.70;;;26.10;99.90;;;;;;5093391;28;20479;-43
2022/08/02 11:01:02;;;;;;;4.50;4.20;;;26.20;99.40;;;;;;5093730;28;20457;-44
2022/08/02 11:03:27;;;;;;;4.43;4.03;;;26.20;99.70;;;;;;5093524;28;20759;-43
2022/08/02 11:06:12;;;;;;;4.50;4.10;;;26.30;99.90;;;;;;5093639;28;20434;-42
2022/08/02 11:08:39;;;;;;;5.57;4.40;;;26.40;99.20;;;;;;5091621;28;20204;-43
2022/08/02 11:11:10;;;;;;;4.40;4.00;;;26.40;98.60;;;;;;5081800;28;20437;-43
2022/08/02 11:13:59;;;;;;;5.50;4.90;;;26.30;99.20;;;;;;5093614;28;20487;-42
2022/08/02 11:16:56;;;;;;;5.13;4.40;;;26.20;98.90;;;;;;5093449;28;20435;-44
2022/08/02 11:19:28;;;;;;;5.67;5.13;;;26.20;99.20;;;;;;5092406;28;20437;-42
2022/08/02 11:22:05;;;;;;;4.83;4.33;;;26.30;99.60;;;;;;5093412;28;20418;-43
2022/08/02 11:24:33;;;;;;;5.50;5.00;;;26.40;99.70;;;;;;5093442;28;20652;-43
2022/08/02 11:27:19;;;;;;;5.40;4.90;;;26.50;99.00;;;;;;5085799;28;20942;-43
2022/08/02 11:29:49;;;;;;;5.10;4.70;;;26.60;99.10;;;;;;5090972;28;20464;-44
2022/08/02 11:32:23;;;;;;;5.20;4.70;;;26.80;99.70;;;;;;5091928;28;20414;-43
2022/08/02 11:34:50;;;;;;;5.33;4.57;;;26.80;99.10;;;;;;5092849;28;20446;-47
2022/08/02 11:37:29;;;;;;;6.07;5.57;;;27.00;99.10;;;;;;5091228;28;20422;-45
2022/08/02 11:39:54;;;;;;;5.87;5.30;;;27.00;98.70;;;;;;5093018;28;20418;-45
2022/08/02 11:42:20;;;;;;;5.37;4.87;;;27.00;98.20;;;;;;5091642;28;20426;-42
2022/08/02 11:44:48;;;;;;;6.17;5.67;;;27.00;98.60;;;;;;5092018;28;20667;-42
2022/08/02 11:47:14;;;;;;;6.70;5.27;;;26.80;98.80;;;;;;5090813;28;20219;-43
2022/08/02 11:49:39;;;;;;;5.50;5.00;;;26.70;99.30;;;;;;5092873;28;20519;-43
2022/08/02 11:52:09;;;;;;;5.20;4.80;;;26.50;99.10;;;;;;5092950;28;20419;-44
2022/08/02 11:54:39;;;;;;;5.10;4.70;;;26.40;99.40;;;;;;5092629;28;20180;-42
2022/08/02 11:57:20;;;;;;;4.33;4.00;;;26.30;99.60;;;;;;5092141;28;20487;-44
2022/08/02 11:59:51;;;;;;;5.40;3.93;;;26.30;99.80;;;;;;5092404;28;20434;-45
2022/08/02 12:02:24;;;;;;;4.40;4.00;;;26.20;99.90;;;;;;5091665;28;20441;-44
2022/08/02 12:04:54;;;;;;;4.23;3.93;;;26.20;99.60;;;;;;5091057;28;20430;-43
2022/08/02 12:07:29;;;;;;;4.57;4.27;;;26.20;99.90;;;;;;5091859;28;20445;-47
2022/08/02 12:10:06;;;;;;;3.97;3.67;;;26.20;99.90;;;;;;5080300;28;20418;-44
2022/08/02 12:12:32;;;;;;;4.60;3.73;;;26.20;99.90;;;;;;5078905;28;20406;-44
2022/08/02 12:14:57;;;;;;;4.43;3.70;;;26.20;99.90;;;;;;5092193;28;21053;-43
2022/08/02 12:20:10;;;;;;;3.67;3.43;;;26.20;99.90;;;;;;5090791;28;20234;-44
2022/08/02 12:22:37;;;;;;;3.90;3.60;;;26.30;99.90;;;;;;5092048;28;20430;-42
2022/08/02 12:25:21;;;;;;;4.23;3.30;;;26.40;99.20;;;;;;5092024;28;20458;-43
2022/08/02 12:27:47;;;;;;;3.27;2.97;;;26.40;98.80;;;;;;5082854;28;20957;-44
2022/08/02 12:30:16;;;;;;;3.53;3.33;;;26.40;98.70;;;;;;5092001;28;20429;-47
2022/08/02 12:32:44;;;;;;;3.93;2.77;;;26.40;98.60;;;;;;5092180;28;20933;-42
2022/08/02 12:35:12;;;;;;;3.00;2.80;;;26.50;98.40;;;;;;5090961;28;20427;-43
2022/08/02 12:37:46;;;;;;;3.40;2.70;;;26.60;97.60;;;;;;5091294;28;20442;-43
2022/08/02 12:40:28;;;;;;;2.90;2.70;;;26.70;98.00;;;;;;5092102;28;20443;-47
2022/08/02 12:43:03;;;;;;;3.03;2.80;;;26.70;98.40;;;;;;5091893;28;20934;-43
2022/08/02 12:45:31;;;;;;;3.37;3.03;;;26.70;98.90;;;;;;5091794;28;20426;-43
2022/08/02 12:47:59;;;;;;;3.20;2.90;;;26.80;98.40;;;;;;5090962;28;20967;-42
2022/08/02 12:50:33;;;;;;;3.10;2.80;;;26.80;97.80;;;;;;5091853;28;20437;-45
2022/08/02 12:53:08;;;;;;;5.10;3.10;;;26.80;98.20;;;;;;5091428;28;20426;-43
2022/08/02 12:55:39;;;;;;;3.60;3.20;;;26.90;98.00;;;;;;5091645;28;20882;-46
2022/08/02 12:58:05;;;;;;;3.20;2.90;;;26.90;98.20;;;;;;5090746;28;20422;-42
2022/08/02 13:00:36;;;;;;;3.47;3.10;;;27.00;97.90;;;;;;5091523;28;20467;-45
2022/08/02 13:03:03;;;;;;;3.30;2.50;;;27.00;98.40;;;;;;5091705;28;20422;-45